createdAt,value
2017-07-02T00:01:25.461Z,7.70
2017-07-02T00:03:52.905Z,7.17
2017-07-02T00:06:20.332Z,7.70
2017-07-02T00:08:48.548Z,7.20
2017-07-02T00:11:15.981Z,8.60
2017-07-02T00:13:43.424Z,7.97
2017-07-02T00:16:11.612Z,9.00
2017-07-02T00:18:39.052Z,8.30
2017-07-02T00:21:06.489Z,8.60
2017-07-02T00:23:33.929Z,9.17
2017-07-02T00:26:01.367Z,7.93
2017-07-02T00:28:28.809Z,8.77
2017-07-02T00:30:56.236Z,8.70
2017-07-02T00:33:24.457Z,9.00
2017-07-02T00:35:51.886Z,9.17
2017-07-02T00:38:19.321Z,9.50
2017-07-02T00:40:47.528Z,9.33
2017-07-02T00:43:14.957Z,7.47
2017-07-02T00:45:43.156Z,7.47
2017-07-02T00:48:10.589Z,10.40
2017-07-02T00:50:38.817Z,9.67
2017-07-02T00:53:06.248Z,9.77
2017-07-02T00:55:33.689Z,10.03
2017-07-02T00:58:01.124Z,10.97
2017-07-02T01:00:28.565Z,10.20
2017-07-02T01:02:56.002Z,12.17
2017-07-02T01:05:23.446Z,11.20
2017-07-02T01:07:50.888Z,11.47
2017-07-02T01:10:18.324Z,11.80
2017-07-02T01:12:46.524Z,12.10
2017-07-02T01:15:13.964Z,12.00
2017-07-02T01:17:41.394Z,11.73
2017-07-02T01:20:08.836Z,13.93
2017-07-02T01:22:36.264Z,16.30
2017-07-02T01:25:03.705Z,15.37
2017-07-02T01:27:31.133Z,16.20
2017-07-02T01:29:58.564Z,15.77
2017-07-02T01:32:25.999Z,19.60
2017-07-02T01:34:53.432Z,21.53
2017-07-02T01:37:20.877Z,19.53
2017-07-02T01:39:48.308Z,22.17
2017-07-02T01:42:16.513Z,24.73
2017-07-02T01:44:43.944Z,22.37
2017-07-02T01:47:12.144Z,22.73
2017-07-02T01:49:39.571Z,24.00
2017-07-02T01:52:07.782Z,23.90
2017-07-02T01:54:35.216Z,24.30
2017-07-02T01:57:02.660Z,25.33
2017-07-02T01:59:30.855Z,28.80
2017-07-02T02:02:10.092Z,28.10
2017-07-02T02:04:37.524Z,28.43
2017-07-02T02:07:05.723Z,28.60
2017-07-02T02:09:33.152Z,28.47
2017-07-02T02:12:01.356Z,30.93
2017-07-02T02:14:28.787Z,27.27
2017-07-02T02:16:56.997Z,29.30
2017-07-02T02:19:24.418Z,28.23
2017-07-02T02:21:52.626Z,28.90
2017-07-02T02:24:20.053Z,31.60
2017-07-02T02:26:48.253Z,32.43
2017-07-02T02:29:15.688Z,33.53
2017-07-02T02:31:43.884Z,35.07
2017-07-02T02:34:11.321Z,34.90
2017-07-02T02:36:39.511Z,34.97
2017-07-02T02:39:06.947Z,42.47
2017-07-02T02:41:35.148Z,37.17
2017-07-02T02:44:02.580Z,39.83
2017-07-02T02:46:30.779Z,39.37
2017-07-02T02:48:58.211Z,41.20
2017-07-02T02:51:26.409Z,39.53
2017-07-02T02:53:53.843Z,37.73
2017-07-02T02:56:22.045Z,38.97
2017-07-02T02:58:49.478Z,39.20
2017-07-02T03:01:16.916Z,39.40
2017-07-02T03:03:44.352Z,40.83
2017-07-02T03:06:11.792Z,39.30
2017-07-02T03:08:39.229Z,38.80
2017-07-02T03:11:06.656Z,40.70
2017-07-02T03:13:34.099Z,38.67
2017-07-02T03:16:02.300Z,39.27
2017-07-02T03:18:29.735Z,38.50
2017-07-02T03:20:57.935Z,37.23
2017-07-02T03:23:25.364Z,37.60
2017-07-02T03:25:53.575Z,35.40
2017-07-02T03:28:21.003Z,35.03
2017-07-02T03:30:48.446Z,34.70
2017-07-02T03:33:15.872Z,34.33
2017-07-02T03:35:43.322Z,35.30
2017-07-02T03:38:10.748Z,34.30
2017-07-02T03:40:38.179Z,33.13
2017-07-02T03:43:06.389Z,34.30
2017-07-02T03:45:33.835Z,31.63
2017-07-02T03:48:01.259Z,30.43
2017-07-02T03:50:28.703Z,33.20
2017-07-02T03:52:56.136Z,30.03
2017-07-02T03:55:23.592Z,33.17
2017-07-02T03:57:51.021Z,31.33
2017-07-02T04:00:18.456Z,33.20
2017-07-02T04:02:46.655Z,33.87
2017-07-02T04:05:14.103Z,30.10
2017-07-02T04:07:42.287Z,31.53
2017-07-02T04:10:09.721Z,32.30
2017-07-02T04:12:37.920Z,31.93
2017-07-02T04:15:05.356Z,34.33
2017-07-02T04:17:33.552Z,32.30
2017-07-02T04:20:00.979Z,34.03
2017-07-02T04:22:28.419Z,32.23
2017-07-02T04:24:55.866Z,28.40
2017-07-02T04:27:23.312Z,33.50
2017-07-02T04:29:50.752Z,31.80
2017-07-02T04:32:18.191Z,29.40
2017-07-02T04:34:45.624Z,28.13
2017-07-02T04:37:13.827Z,27.80
2017-07-02T04:39:41.251Z,30.20
2017-07-02T04:42:09.471Z,30.33
2017-07-02T04:44:36.883Z,27.80
2017-07-02T04:47:05.089Z,30.70
2017-07-02T04:49:32.520Z,29.97
2017-07-02T04:52:00.729Z,29.33
2017-07-02T04:54:28.164Z,29.27
2017-07-02T04:56:55.596Z,29.93
2017-07-02T04:59:23.795Z,28.83
2017-07-02T05:01:51.228Z,28.63
2017-07-02T05:04:19.425Z,25.70
2017-07-02T05:06:46.864Z,26.83
2017-07-02T05:09:15.067Z,26.67
2017-07-02T05:11:42.524Z,29.07
2017-07-02T05:14:10.703Z,26.03
2017-07-02T05:16:38.127Z,28.67
2017-07-02T05:19:05.564Z,27.73
2017-07-02T05:21:33.001Z,26.90
2017-07-02T05:24:00.440Z,26.13
2017-07-02T05:26:27.872Z,27.50
2017-07-02T05:28:55.303Z,27.70
2017-07-02T05:31:22.736Z,26.13
2017-07-02T05:33:50.176Z,29.10
2017-07-02T05:36:17.611Z,26.50
2017-07-02T05:38:45.043Z,25.20
2017-07-02T05:41:13.254Z,28.87
2017-07-02T05:43:40.698Z,28.83
2017-07-02T05:46:08.127Z,26.80
2017-07-02T05:48:36.344Z,26.60
2017-07-02T05:51:03.796Z,25.57
2017-07-02T05:53:31.241Z,26.90
2017-07-02T05:55:58.677Z,27.03
2017-07-02T05:58:26.116Z,26.07
2017-07-02T06:00:53.548Z,24.50
2017-07-02T06:03:20.994Z,25.33
2017-07-02T06:05:48.425Z,26.07
2017-07-02T06:08:15.853Z,28.27
2017-07-02T06:10:43.283Z,28.17
2017-07-02T06:13:10.716Z,24.07
2017-07-02T06:15:38.169Z,25.10
2017-07-02T06:18:05.605Z,25.37
2017-07-02T06:20:34.604Z,24.33
2017-07-02T06:23:02.039Z,23.10
2017-07-02T06:25:30.246Z,24.20
2017-07-02T06:27:57.673Z,24.07
2017-07-02T06:30:25.884Z,22.20
2017-07-02T06:32:53.324Z,21.57
2017-07-02T06:35:20.768Z,22.33
2017-07-02T06:37:48.205Z,21.43
2017-07-02T06:40:15.638Z,20.27
2017-07-02T06:42:43.069Z,21.17
2017-07-02T06:45:10.520Z,21.40
2017-07-02T06:47:37.958Z,20.90
2017-07-02T06:50:05.397Z,19.23
2017-07-02T06:52:33.596Z,20.40
2017-07-02T06:55:01.039Z,19.93
2017-07-02T06:57:28.468Z,19.60
2017-07-02T06:59:55.903Z,17.30
2017-07-02T07:02:23.346Z,18.50
2017-07-02T07:04:50.771Z,18.40
2017-07-02T07:07:18.204Z,16.10
2017-07-02T07:09:45.637Z,16.33
2017-07-02T07:12:13.073Z,17.13
2017-07-02T07:14:40.504Z,17.83
2017-07-02T07:17:07.947Z,16.00
2017-07-02T07:19:35.380Z,13.33
2017-07-02T07:22:02.819Z,17.10
2017-07-02T07:24:30.248Z,17.00
2017-07-02T07:26:57.686Z,14.73
2017-07-02T07:29:25.113Z,15.70
2017-07-02T07:31:53.316Z,15.77
2017-07-02T07:34:20.744Z,13.40
2017-07-02T07:36:48.183Z,15.00
2017-07-02T07:39:15.613Z,13.30
2017-07-02T07:41:43.048Z,14.53
2017-07-02T07:44:10.489Z,13.30
2017-07-02T07:46:37.924Z,12.43
2017-07-02T07:49:05.355Z,13.00
2017-07-02T07:51:32.800Z,13.47
2017-07-02T07:54:00.236Z,12.87
2017-07-02T07:56:27.670Z,12.70
2017-07-02T07:58:55.108Z,13.13
2017-07-02T08:01:23.043Z,13.23
2017-07-02T08:03:50.491Z,11.27
2017-07-02T08:06:17.932Z,11.17
2017-07-02T08:08:45.363Z,12.70
2017-07-02T08:11:12.799Z,11.67
2017-07-02T08:13:41.007Z,11.90
2017-07-02T08:16:08.431Z,9.90
2017-07-02T08:18:35.868Z,8.40
2017-07-02T08:21:03.305Z,10.93
2017-07-02T08:23:30.751Z,11.10
2017-07-02T08:25:58.187Z,11.17
2017-07-02T08:28:25.620Z,8.77
2017-07-02T08:30:53.055Z,10.90
2017-07-02T08:33:20.491Z,9.87
2017-07-02T08:35:47.920Z,10.07
2017-07-02T08:38:15.353Z,8.90
2017-07-02T08:40:43.544Z,8.47
2017-07-02T08:43:10.987Z,8.90
2017-07-02T08:45:38.425Z,7.93
2017-07-02T08:48:05.853Z,8.50
2017-07-02T08:50:33.292Z,7.10
2017-07-02T08:53:00.720Z,7.93
2017-07-02T08:55:28.161Z,6.60
2017-07-02T08:57:55.589Z,6.50
2017-07-02T09:00:23.035Z,6.80
2017-07-02T09:02:50.461Z,7.17
2017-07-02T09:05:17.904Z,8.67
2017-07-02T09:07:45.328Z,7.13
2017-07-02T09:10:12.755Z,6.70
2017-07-02T09:12:40.208Z,7.50
2017-07-02T09:15:07.620Z,8.17
2017-07-02T09:17:35.807Z,7.40
2017-07-02T09:20:03.248Z,7.10
2017-07-02T09:22:30.676Z,6.40
2017-07-02T09:24:58.120Z,7.73
2017-07-02T09:27:25.548Z,6.60
2017-07-02T09:29:53.132Z,5.90
2017-07-02T09:32:20.560Z,7.33
2017-07-02T09:34:47.995Z,7.20
2017-07-02T09:37:15.419Z,6.57
2017-07-02T09:39:42.901Z,7.90
2017-07-02T09:42:10.303Z,6.47
2017-07-02T09:44:37.724Z,5.90
2017-07-02T09:47:05.151Z,6.03
2017-07-02T09:49:32.584Z,5.80
2017-07-02T09:52:00.017Z,5.07
2017-07-02T09:54:27.444Z,5.97
2017-07-02T09:56:54.876Z,6.20
2017-07-02T09:59:22.305Z,5.33
2017-07-02T10:01:49.740Z,5.80
2017-07-02T10:04:17.175Z,6.30
2017-07-02T10:06:45.373Z,4.80
2017-07-02T10:09:12.797Z,5.40
2017-07-02T10:11:40.228Z,5.27
2017-07-02T10:14:07.648Z,4.37
2017-07-02T10:16:35.084Z,5.60
2017-07-02T10:19:02.505Z,4.60
2017-07-02T10:21:29.937Z,4.40
2017-07-02T10:23:57.360Z,4.90
2017-07-02T10:26:24.791Z,5.27
2017-07-02T10:28:52.216Z,4.60
2017-07-02T10:31:19.666Z,4.77
2017-07-02T10:33:47.088Z,5.33
2017-07-02T10:36:14.512Z,4.60
2017-07-02T10:38:42.716Z,4.73
2017-07-02T10:41:10.135Z,4.50
2017-07-02T10:43:37.587Z,5.73
2017-07-02T10:46:05.025Z,5.73
2017-07-02T10:48:32.463Z,5.80
2017-07-02T10:50:59.888Z,5.30
2017-07-02T10:53:27.316Z,4.90
2017-07-02T10:55:54.740Z,5.00
2017-07-02T10:58:22.183Z,5.60
2017-07-02T11:00:49.612Z,4.60
2017-07-02T11:03:17.051Z,5.40
2017-07-02T11:05:44.475Z,6.57
2017-07-02T11:08:11.909Z,5.60
2017-07-02T11:10:39.331Z,6.70
2017-07-02T11:13:07.531Z,4.90
2017-07-02T11:15:34.957Z,5.00
2017-07-02T11:18:03.155Z,5.57
2017-07-02T11:20:30.580Z,4.37
2017-07-02T11:22:58.007Z,4.83
2017-07-02T11:25:25.447Z,4.60
2017-07-02T11:27:52.866Z,5.30
2017-07-02T11:30:20.304Z,4.90
2017-07-02T11:32:47.732Z,4.93
2017-07-02T11:35:15.171Z,5.70
2017-07-02T11:37:42.602Z,4.87
2017-07-02T11:40:10.033Z,4.10
2017-07-02T11:42:37.459Z,4.17
2017-07-02T11:45:04.887Z,4.27
2017-07-02T11:47:32.304Z,3.80
2017-07-02T11:50:00.513Z,3.90
2017-07-02T11:52:27.935Z,3.70
2017-07-02T11:54:55.363Z,3.83
2017-07-02T11:57:22.787Z,3.50
2017-07-02T11:59:50.228Z,3.33
2017-07-02T12:02:17.648Z,4.20
2017-07-02T12:04:45.076Z,3.97
2017-07-02T12:07:12.500Z,4.57
2017-07-02T12:09:39.928Z,4.30
2017-07-02T12:12:07.353Z,3.20
2017-07-02T12:14:34.788Z,2.40
2017-07-02T12:17:02.207Z,2.50
2017-07-02T12:19:30.425Z,2.07
2017-07-02T12:21:57.854Z,3.60
2017-07-02T12:24:25.275Z,3.60
2017-07-02T12:26:52.699Z,4.00
2017-07-02T12:29:20.129Z,3.20
2017-07-02T12:31:47.551Z,2.37
2017-07-02T12:34:14.976Z,2.03
2017-07-02T12:36:42.408Z,1.90
2017-07-02T12:39:09.827Z,2.00
2017-07-02T12:41:38.030Z,1.87
2017-07-02T12:44:05.460Z,2.40
2017-07-02T12:46:32.876Z,1.93
2017-07-02T12:49:00.303Z,2.10
2017-07-02T12:51:27.736Z,1.77
2017-07-02T12:53:55.158Z,1.67
2017-07-02T12:56:22.584Z,1.80
2017-07-02T12:58:50.013Z,1.80
2017-07-02T13:01:17.461Z,1.60
2017-07-02T13:03:44.887Z,1.87
2017-07-02T13:06:12.325Z,2.00
2017-07-02T13:08:39.756Z,1.60
2017-07-02T13:11:07.183Z,1.83
2017-07-02T13:13:34.616Z,2.27
2017-07-02T13:16:02.052Z,2.00
2017-07-02T13:18:29.475Z,1.67
2017-07-02T13:20:56.899Z,1.57
2017-07-02T13:23:24.335Z,1.70
2017-07-02T13:25:51.756Z,1.47
2017-07-02T13:28:19.196Z,2.50
2017-07-02T13:30:46.624Z,2.37
2017-07-02T13:33:14.062Z,2.03
2017-07-02T13:35:41.489Z,1.80
2017-07-02T13:38:08.907Z,2.27
2017-07-02T13:40:36.336Z,2.80
2017-07-02T13:43:03.768Z,2.57
2017-07-02T13:45:31.196Z,2.87
2017-07-02T13:47:58.623Z,2.17
2017-07-02T13:50:26.820Z,2.00
2017-07-02T13:52:54.260Z,2.73
2017-07-02T13:55:21.684Z,2.33
2017-07-02T13:57:49.119Z,2.73
2017-07-02T14:00:16.542Z,1.93
2017-07-02T14:02:43.988Z,2.13
2017-07-02T14:05:12.190Z,2.17
2017-07-02T14:07:39.624Z,2.07
2017-07-02T14:10:07.044Z,2.30
2017-07-02T14:12:34.476Z,2.13
2017-07-02T14:15:01.940Z,2.30
2017-07-02T14:17:29.364Z,2.30
2017-07-02T14:19:56.792Z,2.50
2017-07-02T14:22:24.224Z,2.47
2017-07-02T14:24:52.430Z,2.90
2017-07-02T14:27:20.615Z,3.10
2017-07-02T14:29:48.811Z,2.00
2017-07-02T14:32:16.235Z,2.80
2017-07-02T14:34:43.665Z,2.70
2017-07-02T14:37:11.099Z,2.67
2017-07-02T14:39:38.526Z,2.50
2017-07-02T14:42:05.963Z,2.60
2017-07-02T14:44:33.379Z,3.20
2017-07-02T14:47:00.803Z,5.80
2017-07-02T14:49:28.245Z,5.47
2017-07-02T14:51:56.430Z,3.40
2017-07-02T14:54:23.861Z,2.87
2017-07-02T14:56:52.047Z,3.63
2017-07-02T14:59:19.479Z,6.67
2017-07-02T15:01:46.899Z,5.30
2017-07-02T15:04:14.328Z,6.57
2017-07-02T15:06:41.755Z,3.83
2017-07-02T15:09:09.188Z,3.63
2017-07-02T15:11:36.627Z,3.23
2017-07-02T15:14:04.056Z,3.47
2017-07-02T15:16:31.484Z,2.80
2017-07-02T15:18:59.681Z,3.83
2017-07-02T15:21:27.112Z,3.57
2017-07-02T15:23:54.537Z,4.80
2017-07-02T15:26:21.973Z,3.57
2017-07-02T15:28:49.391Z,3.47
2017-07-02T15:31:16.824Z,3.40
2017-07-02T15:33:44.254Z,3.27
2017-07-02T15:36:11.684Z,3.13
2017-07-02T15:38:39.111Z,2.80
2017-07-02T15:41:06.553Z,3.30
2017-07-02T15:43:33.981Z,3.30
2017-07-02T15:46:01.412Z,3.20
2017-07-02T15:48:28.833Z,3.50
2017-07-02T15:50:56.268Z,3.80
2017-07-02T15:53:23.687Z,3.90
2017-07-02T15:55:51.140Z,3.27
2017-07-02T15:58:18.563Z,3.77
2017-07-02T16:00:46.753Z,4.07
2017-07-02T16:03:14.185Z,4.27
2017-07-02T16:05:41.618Z,4.13
2017-07-02T16:08:09.057Z,3.83
2017-07-02T16:10:36.484Z,3.00
2017-07-02T16:13:03.923Z,3.70
2017-07-02T16:15:31.445Z,3.23
2017-07-02T16:17:58.996Z,3.20
2017-07-02T16:20:26.424Z,2.70
2017-07-02T16:22:53.846Z,3.37
2017-07-02T16:25:22.036Z,3.90
2017-07-02T16:27:49.464Z,3.90
2017-07-02T16:30:16.896Z,2.93
2017-07-02T16:32:44.337Z,3.23
2017-07-02T16:35:11.755Z,3.43
2017-07-02T16:37:39.187Z,2.90
2017-07-02T16:40:06.625Z,2.77
2017-07-02T16:42:34.052Z,3.10
2017-07-02T16:45:01.476Z,3.30
2017-07-02T16:47:29.702Z,3.70
2017-07-02T16:49:57.115Z,3.10
2017-07-02T16:52:24.552Z,3.43
2017-07-02T16:54:52.028Z,3.80
2017-07-02T16:57:19.411Z,4.50
2017-07-02T16:59:46.849Z,3.60
2017-07-02T17:02:14.274Z,3.00
2017-07-02T17:04:41.712Z,2.90
2017-07-02T17:07:09.147Z,4.10
2017-07-02T17:09:36.576Z,3.40
2017-07-02T17:12:04.003Z,3.77
2017-07-02T17:14:31.437Z,3.87
2017-07-02T17:16:58.862Z,3.60
2017-07-02T17:19:26.297Z,4.10
2017-07-02T17:21:54.476Z,4.23
2017-07-02T17:24:22.676Z,4.30
2017-07-02T17:26:50.105Z,4.47
2017-07-02T17:29:18.302Z,3.30
2017-07-02T17:31:45.723Z,3.70
2017-07-02T17:34:13.928Z,3.20
2017-07-02T17:36:41.360Z,3.20
2017-07-02T17:39:08.791Z,3.10
2017-07-02T17:41:36.213Z,4.00
2017-07-02T17:44:03.660Z,3.13
2017-07-02T17:46:31.087Z,3.73
2017-07-02T17:48:59.279Z,3.03
2017-07-02T17:51:26.707Z,2.90
2017-07-02T17:53:54.132Z,3.93
2017-07-02T17:56:21.563Z,2.80
2017-07-02T17:58:48.989Z,3.60
2017-07-02T18:01:16.419Z,3.07
2017-07-02T18:03:43.850Z,3.07
2017-07-02T18:06:11.275Z,2.87
2017-07-02T18:08:38.696Z,2.87
2017-07-02T18:11:06.127Z,2.70
2017-07-02T18:13:33.548Z,2.97
2017-07-02T18:16:00.989Z,3.40
2017-07-02T18:18:28.412Z,3.10
2017-07-02T18:20:55.837Z,3.23
2017-07-02T18:23:23.264Z,2.57
2017-07-02T18:25:50.696Z,2.60
2017-07-02T18:28:18.121Z,3.37
2017-07-02T18:30:45.553Z,3.80
2017-07-02T18:33:13.009Z,3.37
2017-07-02T18:35:40.461Z,3.77
2017-07-02T18:38:07.888Z,3.30
2017-07-02T18:40:35.316Z,3.47
2017-07-02T18:43:02.748Z,3.30
2017-07-02T18:45:30.167Z,3.23
2017-07-02T18:47:58.384Z,3.60
2017-07-02T18:50:25.800Z,2.70
2017-07-02T18:52:53.244Z,3.10
2017-07-02T18:55:20.675Z,3.70
2017-07-02T18:57:48.108Z,3.00
2017-07-02T19:00:15.540Z,3.40
2017-07-02T19:02:43.005Z,3.20
2017-07-02T19:05:10.427Z,3.20
2017-07-02T19:07:37.865Z,3.53
2017-07-02T19:10:05.303Z,3.53
2017-07-02T19:12:32.740Z,2.33
2017-07-02T19:15:00.169Z,3.20
2017-07-02T19:17:27.605Z,3.10
2017-07-02T19:19:55.032Z,3.63
2017-07-02T19:22:22.470Z,3.20
2017-07-02T19:24:49.892Z,3.00
2017-07-02T19:27:17.333Z,3.60
2017-07-02T19:29:44.753Z,3.10
2017-07-02T19:32:12.171Z,3.30
2017-07-02T19:34:39.607Z,3.00
2017-07-02T19:37:07.045Z,3.47
2017-07-02T19:39:34.475Z,4.07
2017-07-02T19:42:01.897Z,3.50
2017-07-02T19:44:29.323Z,2.97
2017-07-02T19:46:56.743Z,3.00
2017-07-02T19:49:24.173Z,3.60
2017-07-02T19:51:51.604Z,3.20
2017-07-02T19:54:19.044Z,3.10
2017-07-02T19:56:46.492Z,3.33
2017-07-02T19:59:13.920Z,3.10
2017-07-02T20:01:41.356Z,3.10
2017-07-02T20:04:08.784Z,3.80
2017-07-02T20:06:36.211Z,2.80
2017-07-02T20:09:03.645Z,3.40
2017-07-02T20:11:31.075Z,2.90
2017-07-02T20:13:58.502Z,3.50
2017-07-02T20:16:25.925Z,3.50
2017-07-02T20:18:53.355Z,2.33
2017-07-02T20:21:26.373Z,2.90
2017-07-02T20:23:53.804Z,3.33
2017-07-02T20:26:21.236Z,3.27
2017-07-02T20:28:49.425Z,2.90
2017-07-02T20:31:16.856Z,2.87
2017-07-02T20:33:45.054Z,3.00
2017-07-02T20:36:12.481Z,3.20
2017-07-02T20:38:39.903Z,2.83
2017-07-02T20:41:07.346Z,2.97
2017-07-02T20:43:34.768Z,2.50
2017-07-02T20:46:02.205Z,2.60
2017-07-02T20:48:29.627Z,2.97
2017-07-02T20:50:57.073Z,2.87
2017-07-02T20:53:24.483Z,2.70
2017-07-02T20:55:52.686Z,2.70
2017-07-02T20:58:20.104Z,2.27
2017-07-02T21:00:47.537Z,3.03
2017-07-02T21:03:14.957Z,2.30
2017-07-02T21:05:42.400Z,3.00
2017-07-02T21:08:09.835Z,2.93
2017-07-02T21:10:37.267Z,2.23
2017-07-02T21:13:04.701Z,2.60
2017-07-02T21:15:32.132Z,2.20
2017-07-02T21:17:59.556Z,3.20
2017-07-02T21:20:27.004Z,3.20
2017-07-02T21:22:54.418Z,2.87
2017-07-02T21:25:21.853Z,3.17
2017-07-02T21:27:49.280Z,2.60
2017-07-02T21:30:16.703Z,2.83
2017-07-02T21:32:44.148Z,2.80
2017-07-02T21:35:11.577Z,3.03
2017-07-02T21:37:39.012Z,3.40
2017-07-02T21:40:06.447Z,2.53
2017-07-02T21:42:33.888Z,3.87
2017-07-02T21:45:01.311Z,2.43
2017-07-02T21:47:28.743Z,3.13
2017-07-02T21:49:56.159Z,2.90
2017-07-02T21:52:23.611Z,3.07
2017-07-02T21:54:51.023Z,3.67
2017-07-02T21:57:18.452Z,3.07
2017-07-02T21:59:45.876Z,3.67
2017-07-02T22:02:13.312Z,3.53
2017-07-02T22:04:40.727Z,3.03
2017-07-02T22:07:08.155Z,2.70
2017-07-02T22:09:35.584Z,2.70
2017-07-02T22:12:03.032Z,3.37
2017-07-02T22:14:30.458Z,2.53
2017-07-02T22:16:57.888Z,3.30
2017-07-02T22:19:25.325Z,2.77
2017-07-02T22:21:52.765Z,3.23
2017-07-02T22:24:20.188Z,3.13
2017-07-02T22:26:48.377Z,3.30
2017-07-02T22:29:15.807Z,3.30
2017-07-02T22:31:43.248Z,2.50
2017-07-02T22:34:10.691Z,3.13
2017-07-02T22:36:38.120Z,2.70
2017-07-02T22:39:05.547Z,3.07
2017-07-02T22:41:33.736Z,2.93
2017-07-02T22:44:01.170Z,2.80
2017-07-02T22:46:28.685Z,3.50
2017-07-02T22:48:56.094Z,2.90
2017-07-02T22:51:24.284Z,3.20
2017-07-02T22:53:51.716Z,2.70
2017-07-02T22:56:19.139Z,3.50
2017-07-02T22:58:46.583Z,3.60
2017-07-02T23:01:14.001Z,3.87
2017-07-02T23:03:42.196Z,4.23
2017-07-02T23:06:09.623Z,4.03
2017-07-02T23:08:37.056Z,3.53
2017-07-02T23:11:04.488Z,3.47
2017-07-02T23:13:31.921Z,3.30
2017-07-02T23:15:59.353Z,3.40
2017-07-02T23:18:26.781Z,2.93
2017-07-02T23:20:54.216Z,3.83
2017-07-02T23:23:21.648Z,3.40
2017-07-02T23:25:49.080Z,3.40
2017-07-02T23:28:16.507Z,3.23
2017-07-02T23:30:43.940Z,3.97
2017-07-02T23:33:11.369Z,3.20
2017-07-02T23:35:38.794Z,3.97
2017-07-02T23:38:06.224Z,3.73
2017-07-02T23:40:33.662Z,4.07
2017-07-02T23:43:01.087Z,3.80
2017-07-02T23:45:28.514Z,3.63
2017-07-02T23:47:55.942Z,4.00
2017-07-02T23:50:23.372Z,3.43
2017-07-02T23:52:50.795Z,4.00
2017-07-02T23:55:18.248Z,3.40
2017-07-02T23:57:46.066Z,3.80
